sensor_id;sensor_type;location;lat;lon;timestamp;temperature;humidity
21282;DHT22;10800;53.096;18.328;2022-07-10T00:00:04;13.10;99.90
21282;DHT22;10800;53.096;18.328;2022-07-10T00:05:20;13.10;99.90
21282;DHT22;10800;53.096;18.328;2022-07-10T00:10:30;13.20;99.90
21282;DHT22;10800;53.096;18.328;2022-07-10T00:15:38;13.30;99.90
21282;DHT22;10800;53.096;18.328;2022-07-10T00:20:45;13.40;99.90
21282;DHT22;10800;53.096;18.328;2022-07-10T00:25:53;13.50;99.90
21282;DHT22;10800;53.096;18.328;2022-07-10T00:31:04;13.50;99.90
21282;DHT22;10800;53.096;18.328;2022-07-10T00:36:33;13.60;99.90
21282;DHT22;10800;53.096;18.328;2022-07-10T00:42:10;13.60;99.90
21282;DHT22;10800;53.096;18.328;2022-07-10T00:47:19;13.60;99.90
21282;DHT22;10800;53.096;18.328;2022-07-10T00:52:27;13.60;99.90
21282;DHT22;10800;53.096;18.328;2022-07-10T00:57:33;13.60;99.90
21282;DHT22;10800;53.096;18.328;2022-07-10T01:02:46;13.70;99.90
21282;DHT22;10800;53.096;18.328;2022-07-10T01:07:47;13.80;99.90
21282;DHT22;10800;53.096;18.328;2022-07-10T01:12:54;13.80;99.90
21282;DHT22;10800;53.096;18.328;2022-07-10T01:18:00;13.80;99.90
21282;DHT22;10800;53.096;18.328;2022-07-10T01:23:06;13.80;99.90
21282;DHT22;10800;53.096;18.328;2022-07-10T01:28:12;13.80;99.90
21282;DHT22;10800;53.096;18.328;2022-07-10T01:33:18;13.80;99.90
21282;DHT22;10800;53.096;18.328;2022-07-10T01:38:23;13.80;99.90
21282;DHT22;10800;53.096;18.328;2022-07-10T01:43:29;13.80;99.90
21282;DHT22;10800;53.096;18.328;2022-07-10T01:48:35;13.80;99.90
21282;DHT22;10800;53.096;18.328;2022-07-10T01:53:41;13.70;99.90
21282;DHT22;10800;53.096;18.328;2022-07-10T01:58:47;13.70;99.90
21282;DHT22;10800;53.096;18.328;2022-07-10T02:03:56;13.70;99.90
21282;DHT22;10800;53.096;18.328;2022-07-10T02:09:19;13.60;99.90
21282;DHT22;10800;53.096;18.328;2022-07-10T02:14:31;13.60;99.90
21282;DHT22;10800;53.096;18.328;2022-07-10T02:20:14;13.60;99.90
21282;DHT22;10800;53.096;18.328;2022-07-10T02:54:36;13.60;99.90
21282;DHT22;10800;53.096;18.328;2022-07-10T03:29:09;13.40;99.90
21282;DHT22;10800;53.096;18.328;2022-07-10T03:34:54;13.50;99.90
21282;DHT22;10800;53.096;18.328;2022-07-10T03:40:31;13.50;99.90
21282;DHT22;10800;53.096;18.328;2022-07-10T03:51:46;13.70;99.90
21282;DHT22;10800;53.096;18.328;2022-07-10T03:57:17;13.80;99.90
21282;DHT22;10800;53.096;18.328;2022-07-10T04:03:17;14.00;99.90
21282;DHT22;10800;53.096;18.328;2022-07-10T04:09:05;14.00;99.90
21282;DHT22;10800;53.096;18.328;2022-07-10T04:14:56;14.10;99.90
21282;DHT22;10800;53.096;18.328;2022-07-10T04:20:27;14.10;99.90
21282;DHT22;10800;53.096;18.328;2022-07-10T04:25:42;14.20;99.90
21282;DHT22;10800;53.096;18.328;2022-07-10T04:31:29;14.20;99.90
21282;DHT22;10800;53.096;18.328;2022-07-10T04:36:50;14.20;99.90
21282;DHT22;10800;53.096;18.328;2022-07-10T04:48:15;14.20;99.90
21282;DHT22;10800;53.096;18.328;2022-07-10T04:53:21;14.20;99.90
21282;DHT22;10800;53.096;18.328;2022-07-10T04:58:27;14.30;99.90
21282;DHT22;10800;53.096;18.328;2022-07-10T05:03:33;14.20;99.90
21282;DHT22;10800;53.096;18.328;2022-07-10T05:08:56;14.10;99.90
21282;DHT22;10800;53.096;18.328;2022-07-10T05:25:51;14.10;99.90
21282;DHT22;10800;53.096;18.328;2022-07-10T05:31:59;14.10;99.90
21282;DHT22;10800;53.096;18.328;2022-07-10T05:42:56;14.60;99.90
21282;DHT22;10800;53.096;18.328;2022-07-10T05:48:31;14.50;99.90
21282;DHT22;10800;53.096;18.328;2022-07-10T05:53:37;14.90;99.90
21282;DHT22;10800;53.096;18.328;2022-07-10T05:58:45;15.40;99.90
21282;DHT22;10800;53.096;18.328;2022-07-10T06:03:54;15.60;99.90
21282;DHT22;10800;53.096;18.328;2022-07-10T06:09:20;15.40;99.90
21282;DHT22;10800;53.096;18.328;2022-07-10T06:20:24;15.70;99.90
21282;DHT22;10800;53.096;18.328;2022-07-10T06:25:57;15.70;99.90
21282;DHT22;10800;53.096;18.328;2022-07-10T06:31:36;16.00;99.90
21282;DHT22;10800;53.096;18.328;2022-07-10T06:36:54;16.00;99.90
21282;DHT22;10800;53.096;18.328;2022-07-10T06:42:01;15.90;99.90
21282;DHT22;10800;53.096;18.328;2022-07-10T06:47:15;16.10;99.90
21282;DHT22;10800;53.096;18.328;2022-07-10T06:52:38;16.50;99.90
21282;DHT22;10800;53.096;18.328;2022-07-10T06:57:46;16.60;99.90
21282;DHT22;10800;53.096;18.328;2022-07-10T07:02:51;16.60;99.90
21282;DHT22;10800;53.096;18.328;2022-07-10T07:07:57;16.80;99.90
21282;DHT22;10800;53.096;18.328;2022-07-10T07:13:02;16.90;99.90
21282;DHT22;10800;53.096;18.328;2022-07-10T07:18:08;16.80;99.90
21282;DHT22;10800;53.096;18.328;2022-07-10T07:23:15;16.90;99.90
21282;DHT22;10800;53.096;18.328;2022-07-10T07:28:20;17.30;99.90
21282;DHT22;10800;53.096;18.328;2022-07-10T07:33:26;17.40;99.90
21282;DHT22;10800;53.096;18.328;2022-07-10T07:38:31;17.00;99.90
21282;DHT22;10800;53.096;18.328;2022-07-10T07:43:37;16.40;99.90
21282;DHT22;10800;53.096;18.328;2022-07-10T07:48:42;16.40;99.90
21282;DHT22;10800;53.096;18.328;2022-07-10T07:53:49;16.90;99.90
21282;DHT22;10800;53.096;18.328;2022-07-10T07:58:54;17.30;99.90
21282;DHT22;10800;53.096;18.328;2022-07-10T08:04:02;17.40;99.90
21282;DHT22;10800;53.096;18.328;2022-07-10T08:09:12;17.50;99.90
21282;DHT22;10800;53.096;18.328;2022-07-10T08:14:17;17.40;99.90
21282;DHT22;10800;53.096;18.328;2022-07-10T08:19:25;17.50;99.90
21282;DHT22;10800;53.096;18.328;2022-07-10T08:24:31;17.90;99.90
21282;DHT22;10800;53.096;18.328;2022-07-10T08:29:37;18.20;99.90
21282;DHT22;10800;53.096;18.328;2022-07-10T08:34:42;18.30;99.90
21282;DHT22;10800;53.096;18.328;2022-07-10T08:39:48;17.90;99.90
21282;DHT22;10800;53.096;18.328;2022-07-10T08:44:54;17.80;99.90
21282;DHT22;10800;53.096;18.328;2022-07-10T08:50:00;17.70;99.90
21282;DHT22;10800;53.096;18.328;2022-07-10T08:55:06;17.90;99.90
21282;DHT22;10800;53.096;18.328;2022-07-10T09:00:12;18.30;99.90
21282;DHT22;10800;53.096;18.328;2022-07-10T09:05:17;18.60;98.00
21282;DHT22;10800;53.096;18.328;2022-07-10T09:10:27;18.50;98.60
21282;DHT22;10800;53.096;18.328;2022-07-10T09:15:33;17.70;99.90
21282;DHT22;10800;53.096;18.328;2022-07-10T09:20:40;17.20;99.90
21282;DHT22;10800;53.096;18.328;2022-07-10T09:49:05;17.30;99.90
21282;DHT22;10800;53.096;18.328;2022-07-10T09:54:16;16.90;99.90
21282;DHT22;10800;53.096;18.328;2022-07-10T09:59:33;17.00;99.90
21282;DHT22;10800;53.096;18.328;2022-07-10T10:04:47;17.30;99.90
21282;DHT22;10800;53.096;18.328;2022-07-10T10:09:55;17.50;99.90
21282;DHT22;10800;53.096;18.328;2022-07-10T10:15:02;17.70;99.90
21282;DHT22;10800;53.096;18.328;2022-07-10T10:20:22;17.70;99.90
21282;DHT22;10800;53.096;18.328;2022-07-10T10:25:42;17.90;99.90
21282;DHT22;10800;53.096;18.328;2022-07-10T10:30:48;18.10;99.90
21282;DHT22;10800;53.096;18.328;2022-07-10T10:35:53;18.40;99.90
21282;DHT22;10800;53.096;18.328;2022-07-10T10:46:26;18.80;99.40
21282;DHT22;10800;53.096;18.328;2022-07-10T10:57:16;19.50;98.00
21282;DHT22;10800;53.096;18.328;2022-07-10T11:02:32;19.60;95.60
21282;DHT22;10800;53.096;18.328;2022-07-10T11:13:18;19.10;95.50
21282;DHT22;10800;53.096;18.328;2022-07-10T11:18:24;19.10;95.60
21282;DHT22;10800;53.096;18.328;2022-07-10T11:29:01;19.40;94.50
21282;DHT22;10800;53.096;18.328;2022-07-10T11:34:06;19.70;93.10
21282;DHT22;10800;53.096;18.328;2022-07-10T11:39:14;19.70;92.70
21282;DHT22;10800;53.096;18.328;2022-07-10T11:44:21;20.00;92.70
21282;DHT22;10800;53.096;18.328;2022-07-10T11:49:27;21.40;91.60
21282;DHT22;10800;53.096;18.328;2022-07-10T11:54:34;21.90;87.70
21282;DHT22;10800;53.096;18.328;2022-07-10T11:59:41;21.10;91.50
21282;DHT22;10800;53.096;18.328;2022-07-10T12:04:47;19.10;96.70
21282;DHT22;10800;53.096;18.328;2022-07-10T12:09:53;18.70;99.90
21282;DHT22;10800;53.096;18.328;2022-07-10T12:14:59;19.10;99.90
21282;DHT22;10800;53.096;18.328;2022-07-10T12:20:10;19.30;95.90
21282;DHT22;10800;53.096;18.328;2022-07-10T12:25:21;19.30;88.90
21282;DHT22;10800;53.096;18.328;2022-07-10T12:30:41;19.40;90.70
21282;DHT22;10800;53.096;18.328;2022-07-10T12:35:48;20.60;86.20
21282;DHT22;10800;53.096;18.328;2022-07-10T12:41:08;20.30;84.60
21282;DHT22;10800;53.096;18.328;2022-07-10T12:46:18;19.30;88.20
21282;DHT22;10800;53.096;18.328;2022-07-10T12:51:28;19.00;90.00
21282;DHT22;10800;53.096;18.328;2022-07-10T12:56:37;18.90;87.70
21282;DHT22;10800;53.096;18.328;2022-07-10T13:01:45;19.10;90.80
21282;DHT22;10800;53.096;18.328;2022-07-10T13:06:51;19.20;91.00
21282;DHT22;10800;53.096;18.328;2022-07-10T13:11:58;18.80;88.60
21282;DHT22;10800;53.096;18.328;2022-07-10T13:17:05;18.80;87.80
21282;DHT22;10800;53.096;18.328;2022-07-10T13:22:11;19.00;87.80
21282;DHT22;10800;53.096;18.328;2022-07-10T13:27:16;19.20;86.20
21282;DHT22;10800;53.096;18.328;2022-07-10T13:32:22;19.50;88.60
21282;DHT22;10800;53.096;18.328;2022-07-10T13:37:29;20.50;87.10
21282;DHT22;10800;53.096;18.328;2022-07-10T13:42:35;21.50;80.10
21282;DHT22;10800;53.096;18.328;2022-07-10T13:47:40;21.10;82.90
21282;DHT22;10800;53.096;18.328;2022-07-10T13:52:46;20.70;84.00
21282;DHT22;10800;53.096;18.328;2022-07-10T13:57:51;20.50;84.00
21282;DHT22;10800;53.096;18.328;2022-07-10T14:02:57;20.80;85.60
21282;DHT22;10800;53.096;18.328;2022-07-10T14:08:04;21.30;81.40
21282;DHT22;10800;53.096;18.328;2022-07-10T14:13:10;20.70;80.60
21282;DHT22;10800;53.096;18.328;2022-07-10T14:18:18;20.20;84.60
21282;DHT22;10800;53.096;18.328;2022-07-10T14:23:25;19.80;87.10
21282;DHT22;10800;53.096;18.328;2022-07-10T14:28:30;19.10;89.90
21282;DHT22;10800;53.096;18.328;2022-07-10T14:33:36;18.90;91.40
21282;DHT22;10800;53.096;18.328;2022-07-10T14:38:41;19.00;92.30
21282;DHT22;10800;53.096;18.328;2022-07-10T14:43:47;19.90;92.70
21282;DHT22;10800;53.096;18.328;2022-07-10T14:48:54;20.20;90.50
21282;DHT22;10800;53.096;18.328;2022-07-10T14:54:00;20.00;90.60
21282;DHT22;10800;53.096;18.328;2022-07-10T14:59:05;20.20;90.60
21282;DHT22;10800;53.096;18.328;2022-07-10T15:04:12;20.20;88.70
21282;DHT22;10800;53.096;18.328;2022-07-10T15:09:18;20.70;85.80
21282;DHT22;10800;53.096;18.328;2022-07-10T15:14:23;21.40;83.10
21282;DHT22;10800;53.096;18.328;2022-07-10T15:19:31;21.00;81.80
21282;DHT22;10800;53.096;18.328;2022-07-10T15:24:37;20.90;85.20
21282;DHT22;10800;53.096;18.328;2022-07-10T15:29:44;20.90;86.00
21282;DHT22;10800;53.096;18.328;2022-07-10T15:34:49;21.60;81.90
21282;DHT22;10800;53.096;18.328;2022-07-10T15:39:55;21.20;80.10
21282;DHT22;10800;53.096;18.328;2022-07-10T15:45:00;19.50;83.10
21282;DHT22;10800;53.096;18.328;2022-07-10T15:50:06;18.50;86.90
21282;DHT22;10800;53.096;18.328;2022-07-10T15:55:12;18.40;87.70
21282;DHT22;10800;53.096;18.328;2022-07-10T16:00:18;18.10;85.20
21282;DHT22;10800;53.096;18.328;2022-07-10T16:05:25;18.00;84.50
21282;DHT22;10800;53.096;18.328;2022-07-10T16:10:32;18.00;84.40
21282;DHT22;10800;53.096;18.328;2022-07-10T16:15:41;17.50;91.30
21282;DHT22;10800;53.096;18.328;2022-07-10T16:20:46;16.70;96.20
21282;DHT22;10800;53.096;18.328;2022-07-10T16:25:52;16.00;99.90
21282;DHT22;10800;53.096;18.328;2022-07-10T16:36:39;16.40;99.90
21282;DHT22;10800;53.096;18.328;2022-07-10T16:41:45;16.60;99.90
21282;DHT22;10800;53.096;18.328;2022-07-10T16:46:50;16.90;99.90
21282;DHT22;10800;53.096;18.328;2022-07-10T16:51:56;16.90;99.90
21282;DHT22;10800;53.096;18.328;2022-07-10T16:57:03;16.80;99.90
21282;DHT22;10800;53.096;18.328;2022-07-10T17:02:12;16.70;99.90
21282;DHT22;10800;53.096;18.328;2022-07-10T17:07:19;16.40;99.90
21282;DHT22;10800;53.096;18.328;2022-07-10T17:12:25;16.30;99.90
21282;DHT22;10800;53.096;18.328;2022-07-10T17:17:37;16.40;99.90
21282;DHT22;10800;53.096;18.328;2022-07-10T17:22:50;16.20;99.90
21282;DHT22;10800;53.096;18.328;2022-07-10T17:27:56;16.30;99.90
21282;DHT22;10800;53.096;18.328;2022-07-10T17:33:01;16.00;99.90
21282;DHT22;10800;53.096;18.328;2022-07-10T17:38:13;15.80;99.90
21282;DHT22;10800;53.096;18.328;2022-07-10T17:43:23;15.80;99.90
21282;DHT22;10800;53.096;18.328;2022-07-10T17:54:08;15.80;99.90
21282;DHT22;10800;53.096;18.328;2022-07-10T18:04:49;15.60;99.90
21282;DHT22;10800;53.096;18.328;2022-07-10T18:10:00;15.50;99.90
21282;DHT22;10800;53.096;18.328;2022-07-10T18:15:43;15.40;99.90
21282;DHT22;10800;53.096;18.328;2022-07-10T18:21:23;15.20;99.90
21282;DHT22;10800;53.096;18.328;2022-07-10T18:26:41;15.20;99.90
21282;DHT22;10800;53.096;18.328;2022-07-10T18:38:32;15.00;99.90
21282;DHT22;10800;53.096;18.328;2022-07-10T18:43:48;14.90;99.90
21282;DHT22;10800;53.096;18.328;2022-07-10T18:49:41;14.80;99.90
21282;DHT22;10800;53.096;18.328;2022-07-10T18:55:14;14.70;99.90
21282;DHT22;10800;53.096;18.328;2022-07-10T19:00:53;14.60;99.90
21282;DHT22;10800;53.096;18.328;2022-07-10T19:06:48;14.50;99.90
21282;DHT22;10800;53.096;18.328;2022-07-10T19:12:09;14.40;99.90
21282;DHT22;10800;53.096;18.328;2022-07-10T19:17:57;14.30;99.90
21282;DHT22;10800;53.096;18.328;2022-07-10T19:23:27;14.20;99.90
21282;DHT22;10800;53.096;18.328;2022-07-10T19:46:31;13.90;99.90
21282;DHT22;10800;53.096;18.328;2022-07-10T19:52:09;13.80;99.90
21282;DHT22;10800;53.096;18.328;2022-07-10T20:03:29;13.50;99.90
21282;DHT22;10800;53.096;18.328;2022-07-10T20:42:50;13.30;99.90
21282;DHT22;10800;53.096;18.328;2022-07-10T20:48:04;13.20;99.90
21282;DHT22;10800;53.096;18.328;2022-07-10T21:22:17;13.30;99.90
21282;DHT22;10800;53.096;18.328;2022-07-10T21:28:16;13.40;99.90
21282;DHT22;10800;53.096;18.328;2022-07-10T21:52:42;13.40;99.90
21282;DHT22;10800;53.096;18.328;2022-07-10T22:17:21;13.30;99.90
21282;DHT22;10800;53.096;18.328;2022-07-10T22:22:55;13.30;99.90
21282;DHT22;10800;53.096;18.328;2022-07-10T22:28:34;13.30;99.90
21282;DHT22;10800;53.096;18.328;2022-07-10T22:34:30;13.30;99.90
21282;DHT22;10800;53.096;18.328;2022-07-10T22:45:56;13.30;99.90
21282;DHT22;10800;53.096;18.328;2022-07-10T22:51:03;13.30;99.90
21282;DHT22;10800;53.096;18.328;2022-07-10T22:56:08;13.40;99.90
21282;DHT22;10800;53.096;18.328;2022-07-10T23:01:14;13.40;99.90
21282;DHT22;10800;53.096;18.328;2022-07-10T23:06:27;13.40;99.90
21282;DHT22;10800;53.096;18.328;2022-07-10T23:11:34;13.40;99.90
21282;DHT22;10800;53.096;18.328;2022-07-10T23:16:47;13.40;99.90
